createdAt,value
2023-01-06T00:01:51.232Z,1.00
2023-01-06T00:04:19.652Z,1.00
2023-01-06T00:06:48.371Z,1.00
2023-01-06T00:09:16.871Z,1.00
2023-01-06T00:11:45.272Z,1.00
2023-01-06T00:14:13.815Z,1.00
2023-01-06T00:16:42.598Z,1.00
2023-01-06T00:19:12.796Z,1.00
2023-01-06T00:21:43.386Z,1.00
2023-01-06T00:24:12.652Z,1.00
2023-01-06T00:26:41.153Z,1.00
2023-01-06T00:29:12.133Z,1.00
2023-01-06T00:31:40.706Z,1.00
2023-01-06T00:34:10.688Z,1.00
2023-01-06T00:36:39.224Z,1.00
2023-01-06T00:39:07.667Z,1.00
2023-01-06T00:41:54.300Z,1.00
2023-01-06T00:44:22.733Z,1.00
2023-01-06T00:46:51.163Z,1.00
2023-01-06T00:49:19.600Z,1.00
2023-01-06T00:51:48.108Z,1.00
2023-01-06T00:54:17.661Z,1.00
2023-01-06T00:56:48.446Z,1.00
2023-01-06T00:59:22.050Z,1.00
2023-01-06T01:01:52.748Z,1.00
2023-01-06T01:04:21.738Z,1.00
2023-01-06T01:06:50.822Z,5.80
2023-01-06T01:09:25.250Z,28.90
2023-01-06T01:12:13.252Z,91.90
2023-01-06T01:14:43.902Z,99.90
2023-01-06T01:17:13.810Z,99.90
2023-01-06T01:19:42.875Z,99.90
2023-01-06T01:22:11.703Z,98.90
2023-01-06T01:24:40.319Z,90.20
2023-01-06T01:27:09.398Z,87.80
2023-01-06T01:29:38.061Z,99.90
2023-01-06T01:32:06.765Z,99.90
2023-01-06T01:34:35.250Z,99.90
2023-01-06T01:37:04.201Z,99.90
2023-01-06T01:39:33.015Z,99.90
2023-01-06T01:42:01.814Z,99.90
2023-01-06T01:44:52.084Z,99.90
2023-01-06T01:47:26.499Z,99.90
2023-01-06T01:50:00.024Z,99.90
2023-01-06T01:52:30.772Z,99.90
2023-01-06T01:54:59.722Z,99.90
2023-01-06T01:57:34.790Z,99.90
2023-01-06T02:00:07.241Z,99.90
2023-01-06T02:02:36.260Z,99.90
2023-01-06T02:05:05.318Z,99.90
2023-01-06T02:07:33.856Z,99.90
2023-01-06T02:10:17.341Z,99.90
2023-01-06T02:12:50.224Z,99.90
2023-01-06T02:15:25.743Z,99.90
2023-01-06T02:18:47.682Z,99.90
2023-01-06T02:21:57.932Z,99.90
2023-01-06T02:24:50.970Z,99.90
2023-01-06T02:27:34.550Z,99.90
2023-01-06T02:30:18.573Z,99.90
2023-01-06T02:32:59.804Z,99.90
2023-01-06T02:35:43.222Z,99.90
2023-01-06T02:38:16.954Z,99.90
2023-01-06T02:41:23.986Z,99.90
2023-01-06T02:44:11.385Z,99.90
2023-01-06T02:46:43.410Z,99.90
2023-01-06T02:49:27.767Z,99.90
2023-01-06T02:52:02.752Z,99.90
2023-01-06T02:54:47.961Z,99.90
2023-01-06T02:57:27.057Z,99.90
2023-01-06T03:00:19.897Z,99.90
2023-01-06T03:02:54.945Z,99.90
2023-01-06T03:05:26.066Z,99.90
2023-01-06T03:07:56.741Z,99.90
2023-01-06T03:10:27.471Z,99.90
2023-01-06T03:13:10.179Z,99.90
2023-01-06T03:15:38.674Z,99.90
2023-01-06T03:18:07.344Z,99.90
2023-01-06T03:20:36.415Z,99.90
2023-01-06T03:23:05.254Z,99.90
2023-01-06T03:25:33.692Z,99.90
2023-01-06T03:28:02.103Z,99.90
2023-01-06T03:31:03.354Z,99.90
2023-01-06T03:33:45.912Z,99.90
2023-01-06T03:36:34.707Z,99.90
2023-01-06T03:39:41.870Z,99.90
2023-01-06T03:42:46.881Z,99.90
2023-01-06T03:45:51.932Z,99.90
2023-01-06T03:48:34.908Z,99.90
2023-01-06T03:51:21.499Z,99.90
2023-01-06T03:54:41.076Z,99.90
2023-01-06T03:57:14.128Z,99.90
2023-01-06T03:59:48.455Z,99.90
2023-01-06T04:02:20.499Z,99.90
2023-01-06T04:05:06.688Z,99.90
2023-01-06T04:07:35.145Z,99.90
2023-01-06T04:10:03.721Z,99.90
2023-01-06T04:12:41.253Z,99.90
2023-01-06T04:15:11.739Z,99.90
2023-01-06T04:17:41.529Z,99.90
2023-01-06T04:20:14.033Z,99.90
2023-01-06T04:22:42.999Z,99.90
2023-01-06T04:25:12.461Z,99.90
2023-01-06T04:27:40.952Z,99.90
2023-01-06T04:30:10.343Z,99.90
2023-01-06T04:32:38.781Z,99.90
2023-01-06T04:35:07.801Z,99.90
2023-01-06T04:37:37.029Z,99.90
2023-01-06T04:40:06.204Z,99.90
2023-01-06T04:42:54.680Z,99.90
2023-01-06T04:45:24.371Z,99.90
2023-01-06T04:47:53.519Z,99.90
2023-01-06T04:50:21.945Z,99.90
2023-01-06T04:52:50.368Z,99.90
2023-01-06T04:55:18.894Z,99.90
2023-01-06T04:57:47.359Z,99.90
2023-01-06T05:00:16.233Z,99.90
2023-01-06T05:02:45.071Z,99.90
2023-01-06T05:05:13.878Z,99.90
2023-01-06T05:07:42.351Z,99.90
2023-01-06T05:10:11.975Z,99.90
2023-01-06T05:12:40.464Z,99.90
2023-01-06T05:15:09.416Z,99.90
2023-01-06T05:17:37.908Z,99.90
2023-01-06T05:20:06.836Z,99.90
2023-01-06T05:22:35.245Z,99.90
2023-01-06T05:25:03.748Z,99.90
2023-01-06T05:27:32.201Z,99.90
2023-01-06T05:30:00.657Z,99.90
2023-01-06T05:32:29.068Z,99.90
2023-01-06T05:34:57.550Z,99.90
2023-01-06T05:37:25.975Z,99.90
2023-01-06T05:39:54.432Z,99.90
2023-01-06T05:42:22.871Z,99.90
2023-01-06T05:44:51.351Z,99.90
2023-01-06T05:47:19.792Z,99.90
2023-01-06T05:49:48.239Z,99.90
2023-01-06T05:52:16.716Z,99.90
2023-01-06T05:54:45.347Z,99.90
2023-01-06T05:57:13.859Z,99.90
2023-01-06T05:59:42.311Z,99.90
2023-01-06T06:02:10.789Z,99.90
2023-01-06T06:04:39.490Z,99.90
2023-01-06T06:07:07.957Z,99.90
2023-01-06T06:09:36.387Z,99.90
2023-01-06T06:12:05.019Z,99.90
2023-01-06T06:14:33.427Z,99.90
2023-01-06T06:17:01.903Z,99.90
2023-01-06T06:19:30.385Z,99.90
2023-01-06T06:21:58.900Z,99.90
2023-01-06T06:24:27.544Z,99.90
2023-01-06T06:26:55.997Z,99.90
2023-01-06T06:29:24.396Z,99.90
2023-01-06T06:31:53.558Z,99.90
2023-01-06T06:34:22.297Z,99.90
2023-01-06T06:36:50.731Z,99.90
2023-01-06T06:39:19.346Z,99.90
2023-01-06T06:41:47.829Z,99.90
2023-01-06T06:44:16.234Z,99.90
2023-01-06T06:46:44.688Z,99.90
2023-01-06T06:49:13.583Z,99.90
2023-01-06T06:51:42.061Z,99.90
2023-01-06T06:54:10.475Z,99.90
2023-01-06T06:56:39.221Z,99.90
2023-01-06T06:59:07.691Z,99.90
2023-01-06T07:01:36.236Z,99.90
2023-01-06T07:04:04.836Z,99.90
2023-01-06T07:06:33.480Z,99.90
2023-01-06T07:09:01.915Z,99.90
2023-01-06T07:11:30.409Z,99.90
2023-01-06T07:13:59.460Z,99.90
2023-01-06T07:16:28.102Z,99.90
2023-01-06T07:18:56.639Z,99.90
2023-01-06T07:21:25.063Z,99.90
2023-01-06T07:23:53.534Z,99.90
2023-01-06T07:26:22.055Z,99.90
2023-01-06T07:28:50.675Z,99.90
2023-01-06T07:31:19.238Z,99.90
2023-01-06T07:33:47.747Z,99.90
2023-01-06T07:36:16.180Z,99.90
2023-01-06T07:38:44.786Z,99.90
2023-01-06T07:41:13.263Z,99.90
2023-01-06T07:43:41.772Z,99.90
2023-01-06T07:46:10.423Z,99.90
2023-01-06T07:48:39.247Z,99.90
2023-01-06T07:51:07.972Z,99.90
2023-01-06T07:53:37.891Z,99.90
2023-01-06T07:56:06.691Z,99.90
2023-01-06T07:58:35.124Z,99.90
2023-01-06T08:01:07.941Z,99.90
2023-01-06T08:03:36.534Z,99.90
2023-01-06T08:06:12.054Z,99.90
2023-01-06T08:08:42.208Z,99.90
2023-01-06T08:11:13.783Z,99.90
2023-01-06T08:13:42.475Z,99.90
2023-01-06T08:16:12.450Z,99.90
2023-01-06T08:18:41.676Z,99.90
2023-01-06T08:21:11.949Z,99.90
2023-01-06T08:23:40.570Z,99.90
2023-01-06T08:26:15.113Z,99.90
2023-01-06T08:28:45.315Z,99.90
2023-01-06T08:31:19.111Z,99.90
2023-01-06T08:33:48.444Z,99.90
2023-01-06T08:36:19.122Z,99.90
2023-01-06T08:38:48.259Z,99.90
2023-01-06T08:41:17.301Z,99.90
2023-01-06T08:43:47.279Z,99.90
2023-01-06T08:46:20.081Z,99.90
2023-01-06T08:48:49.175Z,99.90
2023-01-06T08:51:21.770Z,99.90
2023-01-06T08:53:50.973Z,99.90
2023-01-06T08:56:22.629Z,99.90
2023-01-06T08:58:56.432Z,99.90
2023-01-06T09:01:27.348Z,99.90
2023-01-06T09:03:56.117Z,99.90
2023-01-06T09:06:24.643Z,99.90
2023-01-06T09:08:54.406Z,99.90
2023-01-06T09:11:23.445Z,99.90
2023-01-06T09:13:52.093Z,99.90
2023-01-06T09:16:22.391Z,99.90
2023-01-06T09:18:51.397Z,99.90
2023-01-06T09:21:21.764Z,99.90
2023-01-06T09:23:50.945Z,99.90
2023-01-06T09:26:22.394Z,99.90
2023-01-06T09:28:50.878Z,99.90
2023-01-06T09:31:19.426Z,99.90
2023-01-06T09:33:48.175Z,99.90
2023-01-06T09:36:16.606Z,99.90
2023-01-06T09:38:45.016Z,99.90
2023-01-06T09:41:19.633Z,99.90
2023-01-06T09:44:00.185Z,99.90
2023-01-06T09:46:32.744Z,99.90
2023-01-06T09:49:11.061Z,99.90
2023-01-06T09:51:40.032Z,99.90
2023-01-06T09:54:27.567Z,99.90
2023-01-06T09:57:03.281Z,99.90
2023-01-06T09:59:33.615Z,99.90
2023-01-06T10:02:03.499Z,99.90
2023-01-06T10:04:32.456Z,99.90
2023-01-06T10:07:11.173Z,99.90
2023-01-06T10:10:05.569Z,99.90
2023-01-06T10:12:40.116Z,99.90
2023-01-06T10:15:41.468Z,99.90
2023-01-06T10:18:20.478Z,99.90
2023-01-06T10:20:51.987Z,99.90
2023-01-06T10:23:29.695Z,99.90
2023-01-06T10:26:10.379Z,99.90
2023-01-06T10:28:46.757Z,99.90
2023-01-06T10:31:21.432Z,99.90
2023-01-06T10:33:53.080Z,99.90
2023-01-06T10:36:43.381Z,99.90
2023-01-06T10:39:21.314Z,99.90
2023-01-06T10:42:26.474Z,99.90
2023-01-06T10:44:54.941Z,99.90
2023-01-06T10:47:31.584Z,99.90
2023-01-06T10:50:01.990Z,99.90
2023-01-06T10:52:31.399Z,99.90
2023-01-06T10:55:05.359Z,99.90
2023-01-06T10:57:41.684Z,99.90
2023-01-06T11:00:23.263Z,99.90
2023-01-06T11:03:09.106Z,99.90
2023-01-06T11:05:42.548Z,99.90
2023-01-06T11:08:15.950Z,99.90
2023-01-06T11:10:55.491Z,99.90
2023-01-06T11:13:30.040Z,99.90
2023-01-06T11:16:00.980Z,99.90
2023-01-06T11:18:31.784Z,99.90
2023-01-06T11:21:05.531Z,99.90
2023-01-06T11:23:34.731Z,99.90
2023-01-06T11:26:05.264Z,99.90
2023-01-06T11:28:34.416Z,99.90
2023-01-06T11:31:16.884Z,99.90
2023-01-06T11:34:00.985Z,99.90
2023-01-06T11:36:32.611Z,99.90
2023-01-06T11:39:05.054Z,99.90
2023-01-06T11:41:46.186Z,99.90
2023-01-06T11:44:40.885Z,99.90
2023-01-06T11:47:25.850Z,99.90
2023-01-06T11:49:57.888Z,99.90
2023-01-06T11:52:34.252Z,99.90
2023-01-06T11:55:21.785Z,99.90
2023-01-06T11:57:55.850Z,99.90
2023-01-06T12:00:48.725Z,99.90
2023-01-06T12:03:33.742Z,99.90
2023-01-06T12:06:43.784Z,99.90
2023-01-06T12:09:34.907Z,99.90
2023-01-06T12:12:17.157Z,99.90
2023-01-06T12:14:46.074Z,99.90
2023-01-06T12:17:30.619Z,99.90
2023-01-06T12:20:28.470Z,99.90
2023-01-06T12:23:07.029Z,99.90
2023-01-06T12:25:47.654Z,99.90
2023-01-06T12:28:32.153Z,99.90
2023-01-06T12:31:19.346Z,99.90
2023-01-06T12:34:10.931Z,99.90
2023-01-06T12:36:42.481Z,99.90
2023-01-06T12:39:31.773Z,99.90
2023-01-06T12:42:15.691Z,99.90
2023-01-06T12:44:56.082Z,99.90
2023-01-06T12:47:24.479Z,99.90
2023-01-06T12:49:56.375Z,99.90
2023-01-06T12:52:31.160Z,99.90
2023-01-06T12:55:01.218Z,99.90
2023-01-06T12:57:39.264Z,99.90
2023-01-06T13:00:39.633Z,99.90
2023-01-06T13:03:33.669Z,99.90
2023-01-06T13:06:18.162Z,99.90
2023-01-06T13:09:11.834Z,99.90
2023-01-06T13:11:40.262Z,99.90
2023-01-06T13:14:20.710Z,99.90
2023-01-06T13:17:18.723Z,99.90
2023-01-06T13:19:54.493Z,99.90
2023-01-06T13:22:41.838Z,99.90
2023-01-06T13:25:43.645Z,99.90
2023-01-06T13:28:39.641Z,99.90
2023-01-06T13:31:41.813Z,99.90
2023-01-06T13:34:33.789Z,99.90
2023-01-06T13:37:20.834Z,99.90
2023-01-06T13:39:56.748Z,99.90
2023-01-06T13:42:33.564Z,99.90
2023-01-06T13:45:03.257Z,99.90
2023-01-06T13:47:32.838Z,99.90
2023-01-06T13:50:02.232Z,99.90
2023-01-06T13:52:32.765Z,99.90
2023-01-06T13:55:23.332Z,99.90
2023-01-06T13:57:51.889Z,99.90
2023-01-06T14:00:25.641Z,99.90
2023-01-06T14:02:54.119Z,99.90
2023-01-06T14:05:22.672Z,99.90
2023-01-06T14:07:52.712Z,99.90
2023-01-06T14:10:44.834Z,99.90
2023-01-06T14:13:28.388Z,99.90
2023-01-06T14:16:15.061Z,99.90
2023-01-06T14:19:06.161Z,99.90
2023-01-06T14:21:35.644Z,99.90
2023-01-06T14:24:19.104Z,99.90
2023-01-06T14:26:52.100Z,99.90
2023-01-06T14:29:45.017Z,99.90
2023-01-06T14:32:35.908Z,99.90
2023-01-06T14:35:13.573Z,99.90
2023-01-06T14:37:52.822Z,99.90
2023-01-06T14:40:48.939Z,99.90
2023-01-06T14:43:32.284Z,99.90
2023-01-06T14:46:10.046Z,99.90
2023-01-06T14:48:45.124Z,99.90
2023-01-06T14:51:23.939Z,99.90
2023-01-06T14:54:18.372Z,99.90
2023-01-06T14:56:58.572Z,99.90
2023-01-06T14:59:27.661Z,99.90
2023-01-06T15:02:00.778Z,99.90
2023-01-06T15:04:32.716Z,99.90
2023-01-06T15:07:02.889Z,99.90
2023-01-06T15:09:31.520Z,99.90
2023-01-06T15:12:00.055Z,99.90
2023-01-06T15:14:32.479Z,99.90
2023-01-06T15:17:04.588Z,99.90
2023-01-06T15:19:34.159Z,99.90
2023-01-06T15:22:07.744Z,99.90
2023-01-06T15:24:40.523Z,99.90
2023-01-06T15:27:14.116Z,99.90
2023-01-06T15:29:51.917Z,99.90
2023-01-06T15:32:21.866Z,99.90
2023-01-06T15:34:53.826Z,99.90
2023-01-06T15:37:26.860Z,99.90
2023-01-06T15:39:55.686Z,99.90
2023-01-06T15:42:26.289Z,99.90
2023-01-06T15:45:02.709Z,99.90
2023-01-06T15:47:38.072Z,99.90
2023-01-06T15:50:20.919Z,99.90
2023-01-06T15:52:53.715Z,96.20
2023-01-06T15:55:30.723Z,92.30
2023-01-06T15:58:10.364Z,79.10
2023-01-06T16:00:49.697Z,75.40
2023-01-06T16:03:26.477Z,74.70
2023-01-06T16:06:13.444Z,65.30
2023-01-06T16:08:43.560Z,58.90
2023-01-06T16:11:11.941Z,60.80
2023-01-06T16:13:41.724Z,58.40
2023-01-06T16:16:16.649Z,50.30
2023-01-06T16:18:45.888Z,54.70
2023-01-06T16:21:33.046Z,48.40
2023-01-06T16:24:21.301Z,42.30
2023-01-06T16:26:58.549Z,31.10
2023-01-06T16:29:30.320Z,34.80
2023-01-06T16:32:01.234Z,32.30
2023-01-06T16:34:32.641Z,32.20
2023-01-06T16:37:02.401Z,37.20
2023-01-06T16:39:30.811Z,35.40
2023-01-06T16:42:02.204Z,27.50
2023-01-06T16:44:35.117Z,22.10
2023-01-06T16:47:09.622Z,17.80
2023-01-06T16:49:38.020Z,14.30
2023-01-06T16:52:09.572Z,18.90
2023-01-06T16:54:37.970Z,15.70
2023-01-06T16:57:11.544Z,14.60
2023-01-06T16:59:40.647Z,11.60
2023-01-06T17:02:19.978Z,5.30
2023-01-06T17:04:48.590Z,1.00
2023-01-06T17:07:17.506Z,1.00
2023-01-06T17:09:46.032Z,1.00
2023-01-06T17:12:36.101Z,1.00
2023-01-06T17:15:05.511Z,1.00
2023-01-06T17:17:35.557Z,1.00
2023-01-06T17:20:05.657Z,1.00
2023-01-06T17:22:34.239Z,1.00
2023-01-06T17:25:10.000Z,1.00
2023-01-06T17:27:38.537Z,1.00
2023-01-06T17:30:24.734Z,1.00
2023-01-06T17:32:53.185Z,1.00
2023-01-06T17:35:28.994Z,1.00
2023-01-06T17:38:01.796Z,1.00
2023-01-06T17:40:39.264Z,1.00
2023-01-06T17:43:23.703Z,1.00
2023-01-06T17:45:53.464Z,1.00
2023-01-06T17:48:22.535Z,1.00
2023-01-06T17:50:56.301Z,1.00
2023-01-06T17:53:55.194Z,1.00
2023-01-06T17:56:24.875Z,1.00
2023-01-06T17:58:53.328Z,1.00
2023-01-06T18:01:29.742Z,1.00
2023-01-06T18:04:00.304Z,1.00
2023-01-06T18:06:38.397Z,1.00
2023-01-06T18:09:06.757Z,1.00
2023-01-06T18:11:57.597Z,1.00
2023-01-06T18:14:42.848Z,1.00
2023-01-06T18:17:28.775Z,1.00
2023-01-06T18:19:57.582Z,1.00
2023-01-06T18:22:26.931Z,1.00
2023-01-06T18:24:59.117Z,1.00
2023-01-06T18:27:30.670Z,1.00
2023-01-06T18:30:21.917Z,1.00
2023-01-06T18:32:52.006Z,1.00
2023-01-06T18:35:23.387Z,1.00
2023-01-06T18:37:52.463Z,1.00
2023-01-06T18:40:25.178Z,1.00
2023-01-06T18:42:55.249Z,1.00
2023-01-06T18:45:36.887Z,1.00
2023-01-06T18:48:30.166Z,1.00
2023-01-06T18:51:00.607Z,1.00
2023-01-06T18:53:32.091Z,1.00
2023-01-06T18:56:12.726Z,1.00
2023-01-06T18:58:55.632Z,1.00
2023-01-06T19:01:28.299Z,1.00
2023-01-06T19:04:19.615Z,1.00
2023-01-06T19:07:25.029Z,1.00
2023-01-06T19:09:53.492Z,1.00
2023-01-06T19:12:31.165Z,1.00
2023-01-06T19:15:22.402Z,1.00
2023-01-06T19:17:52.408Z,1.00
2023-01-06T19:20:35.931Z,1.00
2023-01-06T19:23:16.980Z,1.00
2023-01-06T19:25:49.407Z,1.00
2023-01-06T19:28:23.853Z,1.00
2023-01-06T19:30:55.013Z,1.00
2023-01-06T19:33:51.019Z,1.00
2023-01-06T19:36:43.138Z,1.00
2023-01-06T19:39:32.733Z,1.00
2023-01-06T19:42:16.774Z,1.00
2023-01-06T19:44:45.769Z,1.00
2023-01-06T19:47:29.167Z,1.00
2023-01-06T19:50:01.744Z,1.00
2023-01-06T19:52:35.046Z,1.00
2023-01-06T19:55:15.546Z,1.00
2023-01-06T19:57:49.426Z,1.00
2023-01-06T20:00:31.531Z,1.00
2023-01-06T20:03:04.048Z,1.00
2023-01-06T20:05:33.164Z,1.00
2023-01-06T20:08:01.616Z,1.00
2023-01-06T20:10:30.074Z,1.00
2023-01-06T20:12:58.541Z,1.00
2023-01-06T20:15:26.951Z,1.00
2023-01-06T20:17:55.404Z,1.00
2023-01-06T20:20:23.916Z,1.00
2023-01-06T20:22:53.028Z,1.00
2023-01-06T20:25:21.448Z,1.00
2023-01-06T20:27:49.977Z,1.00
2023-01-06T20:30:18.490Z,1.00
2023-01-06T20:32:46.897Z,1.00
2023-01-06T20:35:16.510Z,1.00
2023-01-06T20:37:44.918Z,1.00
2023-01-06T20:40:13.596Z,1.00
2023-01-06T20:42:42.098Z,1.00
2023-01-06T20:45:11.156Z,1.00
2023-01-06T20:47:39.568Z,1.00
2023-01-06T20:50:08.461Z,1.00
2023-01-06T20:52:36.935Z,1.00
2023-01-06T20:55:05.690Z,1.00
2023-01-06T20:57:34.147Z,1.00
2023-01-06T21:00:02.619Z,1.00
2023-01-06T21:02:31.158Z,1.00
2023-01-06T21:04:59.711Z,1.00
2023-01-06T21:07:28.113Z,1.00
2023-01-06T21:09:56.635Z,1.00
2023-01-06T21:12:25.423Z,1.00
2023-01-06T21:14:54.480Z,1.00
2023-01-06T21:17:23.332Z,1.00
2023-01-06T21:19:51.806Z,1.00
2023-01-06T21:22:20.296Z,1.00
2023-01-06T21:24:48.718Z,1.00
2023-01-06T21:27:17.823Z,1.00
2023-01-06T21:29:46.358Z,1.00
2023-01-06T21:32:14.821Z,1.00
2023-01-06T21:34:43.694Z,1.00
2023-01-06T21:37:12.110Z,1.00
2023-01-06T21:39:40.873Z,1.00
2023-01-06T21:42:27.489Z,1.00
2023-01-06T21:44:55.929Z,1.00
2023-01-06T21:47:24.417Z,1.00
2023-01-06T21:49:53.018Z,1.00
2023-01-06T21:52:21.575Z,1.00
2023-01-06T21:54:50.867Z,1.00
2023-01-06T21:57:19.378Z,1.00
2023-01-06T21:59:48.070Z,1.00
2023-01-06T22:02:16.747Z,1.00
2023-01-06T22:04:45.317Z,1.00
2023-01-06T22:07:15.557Z,1.00
2023-01-06T22:09:46.607Z,1.00
2023-01-06T22:12:18.377Z,1.00
2023-01-06T22:14:49.111Z,1.00
2023-01-06T22:17:19.144Z,1.00
2023-01-06T22:19:48.550Z,1.00
2023-01-06T22:22:17.841Z,1.00
2023-01-06T22:24:46.332Z,1.00
2023-01-06T22:27:14.965Z,1.00
2023-01-06T22:29:43.439Z,1.00
2023-01-06T22:32:11.877Z,1.00
2023-01-06T22:34:40.759Z,1.00
2023-01-06T22:37:09.209Z,1.00
2023-01-06T22:39:37.662Z,1.00
2023-01-06T22:42:06.166Z,1.00
2023-01-06T22:44:34.702Z,1.00
2023-01-06T22:47:03.120Z,1.00
2023-01-06T22:49:31.550Z,1.00
2023-01-06T22:52:00.118Z,1.00
2023-01-06T22:54:28.551Z,1.00
2023-01-06T22:56:57.026Z,1.00
2023-01-06T22:59:26.363Z,1.00
2023-01-06T23:01:54.900Z,1.00
2023-01-06T23:04:23.497Z,1.00
2023-01-06T23:06:52.184Z,1.00
2023-01-06T23:09:20.728Z,1.00
2023-01-06T23:11:49.975Z,1.00
2023-01-06T23:14:18.750Z,1.00
2023-01-06T23:16:48.061Z,1.00
2023-01-06T23:19:17.860Z,1.00
2023-01-06T23:21:46.970Z,1.00
2023-01-06T23:24:15.881Z,1.00
2023-01-06T23:26:47.170Z,1.00
2023-01-06T23:29:16.112Z,1.00
2023-01-06T23:31:46.505Z,1.00
2023-01-06T23:34:19.654Z,1.00
2023-01-06T23:36:49.160Z,1.00
2023-01-06T23:39:18.099Z,1.00
2023-01-06T23:41:46.902Z,1.00
2023-01-06T23:44:17.454Z,1.00
2023-01-06T23:46:46.823Z,1.00
2023-01-06T23:49:17.931Z,1.00
2023-01-06T23:51:46.381Z,1.00
2023-01-06T23:54:15.064Z,1.00
2023-01-06T23:56:43.644Z,1.00
2023-01-06T23:59:13.551Z,1.00
